createdAt,value
2019-05-29T00:02:21.885Z,17.17
2019-05-29T00:04:52.040Z,16.27
2019-05-29T00:07:22.110Z,15.77
2019-05-29T00:09:52.230Z,15.90
2019-05-29T00:12:22.334Z,14.33
2019-05-29T00:14:52.442Z,19.80
2019-05-29T00:17:22.530Z,13.73
2019-05-29T00:19:52.645Z,14.70
2019-05-29T00:22:22.733Z,15.40
2019-05-29T00:25:16.669Z,12.40
2019-05-29T00:27:46.845Z,11.33
2019-05-29T00:30:33.991Z,12.87
2019-05-29T00:33:04.098Z,10.63
2019-05-29T00:35:59.212Z,11.67
2019-05-29T00:38:16.676Z,12.10
2019-05-29T00:40:46.793Z,11.03
2019-05-29T00:43:17.518Z,10.20
2019-05-29T00:45:47.612Z,12.27
2019-05-29T00:48:17.907Z,15.83
2019-05-29T00:50:48.045Z,12.47
2019-05-29T00:53:18.414Z,14.13
2019-05-29T00:55:48.543Z,14.53
2019-05-29T00:58:19.804Z,15.27
2019-05-29T01:00:50.091Z,16.67
2019-05-29T01:03:20.173Z,21.40
2019-05-29T01:05:50.262Z,17.90
2019-05-29T01:08:20.524Z,13.13
2019-05-29T01:10:50.733Z,12.00
2019-05-29T01:13:21.273Z,14.67
2019-05-29T01:15:51.426Z,12.57
2019-05-29T01:18:22.368Z,13.37
2019-05-29T01:20:52.528Z,10.87
2019-05-29T01:23:22.657Z,12.10
2019-05-29T01:25:52.749Z,12.40
2019-05-29T01:28:23.149Z,12.23
2019-05-29T01:30:53.545Z,15.57
2019-05-29T01:33:24.979Z,12.00
2019-05-29T01:35:55.188Z,14.80
2019-05-29T01:38:25.311Z,11.03
2019-05-29T01:40:55.400Z,11.40
2019-05-29T01:43:25.481Z,11.87
2019-05-29T01:45:55.588Z,10.37
2019-05-29T01:48:25.674Z,9.07
2019-05-29T01:50:55.818Z,9.87
2019-05-29T01:53:35.034Z,10.67
2019-05-29T01:56:10.903Z,8.80
2019-05-29T01:59:01.790Z,8.70
2019-05-29T02:01:31.891Z,6.90
2019-05-29T02:04:24.052Z,7.07
2019-05-29T02:06:54.370Z,9.37
2019-05-29T02:09:45.324Z,8.13
2019-05-29T02:12:16.264Z,6.83
2019-05-29T02:14:54.862Z,8.30
2019-05-29T02:17:25.061Z,8.87
2019-05-29T02:19:55.200Z,8.33
2019-05-29T02:22:25.280Z,7.50
2019-05-29T02:24:55.369Z,8.40
2019-05-29T02:27:25.592Z,9.43
2019-05-29T02:29:55.874Z,8.30
2019-05-29T02:32:27.558Z,7.50
2019-05-29T02:34:57.655Z,7.30
2019-05-29T02:37:28.971Z,6.90
2019-05-29T02:39:59.104Z,6.70
2019-05-29T02:42:29.296Z,6.90
2019-05-29T02:44:59.356Z,7.10
2019-05-29T02:47:38.704Z,6.83
2019-05-29T02:50:08.878Z,6.90
2019-05-29T02:52:59.464Z,6.67
2019-05-29T02:55:30.917Z,5.33
2019-05-29T02:58:24.029Z,6.03
2019-05-29T03:00:56.288Z,5.70
2019-05-29T03:03:29.541Z,5.90
2019-05-29T03:05:58.577Z,6.07
2019-05-29T03:08:31.211Z,5.37
2019-05-29T03:11:00.430Z,6.47
2019-05-29T03:13:31.737Z,5.77
2019-05-29T03:16:10.639Z,5.07
2019-05-29T03:18:35.007Z,6.33
2019-05-29T03:21:05.304Z,5.83
2019-05-29T03:23:36.298Z,6.40
2019-05-29T03:26:12.865Z,6.83
2019-05-29T03:28:42.946Z,6.33
2019-05-29T03:31:13.034Z,6.27
2019-05-29T03:33:49.243Z,5.47
2019-05-29T03:36:28.377Z,5.97
2019-05-29T03:38:57.150Z,6.90
2019-05-29T03:41:44.813Z,6.57
2019-05-29T03:44:14.897Z,5.90
2019-05-29T03:49:35.180Z,5.97
2019-05-29T03:52:05.669Z,5.90
2019-05-29T03:54:35.758Z,5.30
2019-05-29T03:57:05.826Z,6.03
2019-05-29T03:59:37.368Z,6.27
2019-05-29T04:02:07.706Z,6.50
2019-05-29T04:04:38.268Z,5.50
2019-05-29T04:07:08.618Z,5.60
2019-05-29T04:09:38.729Z,5.03
2019-05-29T04:12:08.794Z,5.63
2019-05-29T04:14:39.633Z,5.63
2019-05-29T04:17:10.561Z,5.87
2019-05-29T04:19:56.596Z,5.17
2019-05-29T04:22:30.869Z,4.63
2019-05-29T04:25:30.228Z,4.77
2019-05-29T04:28:00.409Z,5.13
2019-05-29T04:30:46.918Z,4.67
2019-05-29T04:33:17.076Z,4.50
2019-05-29T04:36:09.866Z,4.77
2019-05-29T04:38:40.525Z,4.83
2019-05-29T04:41:32.678Z,4.47
2019-05-29T04:44:03.087Z,4.60
2019-05-29T04:46:34.056Z,4.73
2019-05-29T04:49:04.351Z,4.93
2019-05-29T04:51:35.401Z,4.53
2019-05-29T04:54:05.698Z,4.60
2019-05-29T04:56:36.917Z,4.00
2019-05-29T04:59:07.020Z,4.40
2019-05-29T05:01:37.216Z,4.47
2019-05-29T05:04:07.552Z,4.23
2019-05-29T05:06:37.624Z,3.60
2019-05-29T05:09:08.380Z,3.57
2019-05-29T05:11:39.568Z,3.80
2019-05-29T05:14:10.053Z,3.60
2019-05-29T05:16:40.123Z,3.70
2019-05-29T05:19:29.888Z,3.53
2019-05-29T05:21:59.992Z,4.63
2019-05-29T05:24:51.420Z,4.77
2019-05-29T05:27:21.571Z,4.80
2019-05-29T05:29:51.636Z,4.53
2019-05-29T05:32:21.729Z,5.30
2019-05-29T05:34:51.893Z,4.67
2019-05-29T05:37:21.976Z,4.80
2019-05-29T05:39:52.108Z,4.83
2019-05-29T05:42:22.215Z,5.20
2019-05-29T05:44:52.268Z,4.80
2019-05-29T05:47:22.346Z,4.90
2019-05-29T05:49:52.409Z,4.80
2019-05-29T05:52:22.510Z,5.80
2019-05-29T05:54:52.602Z,5.10
2019-05-29T05:57:22.698Z,5.73
2019-05-29T05:59:52.929Z,4.80
2019-05-29T06:02:42.178Z,5.37
2019-05-29T06:05:12.803Z,4.53
2019-05-29T06:08:07.472Z,4.70
2019-05-29T06:10:38.204Z,5.43
2019-05-29T06:13:32.159Z,5.03
2019-05-29T06:16:03.020Z,5.70
2019-05-29T06:18:57.505Z,5.03
2019-05-29T06:21:27.580Z,4.90
2019-05-29T06:24:18.907Z,5.70
2019-05-29T06:26:49.017Z,5.60
2019-05-29T06:29:41.287Z,6.20
2019-05-29T06:32:11.513Z,6.27
2019-05-29T06:35:04.445Z,6.00
2019-05-29T06:37:35.547Z,5.67
2019-05-29T06:40:29.475Z,5.70
2019-05-29T06:42:59.555Z,6.50
2019-05-29T06:45:54.218Z,6.00
2019-05-29T06:48:42.418Z,5.57
2019-05-29T06:51:15.916Z,5.93
2019-05-29T06:53:46.057Z,5.73
2019-05-29T06:56:33.423Z,6.50
2019-05-29T06:59:03.688Z,5.80
2019-05-29T07:01:35.121Z,6.43
2019-05-29T07:04:11.895Z,5.67
2019-05-29T07:06:38.526Z,5.30
2019-05-29T07:09:08.650Z,4.67
2019-05-29T07:11:39.067Z,5.00
2019-05-29T07:14:09.289Z,5.30
2019-05-29T07:16:45.301Z,5.40
2019-05-29T07:19:26.524Z,6.13
2019-05-29T07:21:42.959Z,5.70
2019-05-29T07:24:13.033Z,6.30
2019-05-29T07:26:43.640Z,5.93
2019-05-29T07:29:20.228Z,4.50
2019-05-29T07:31:50.290Z,3.93
2019-05-29T07:34:22.429Z,4.13
2019-05-29T07:36:52.706Z,4.23
2019-05-29T07:39:22.814Z,3.50
2019-05-29T07:41:52.849Z,3.97
2019-05-29T07:44:22.938Z,4.70
2019-05-29T07:46:53.028Z,5.47
2019-05-29T07:49:38.131Z,5.10
2019-05-29T07:51:54.888Z,5.00
2019-05-29T07:54:25.069Z,5.30
2019-05-29T07:56:55.183Z,5.17
2019-05-29T07:59:28.556Z,5.50
2019-05-29T08:01:57.016Z,5.20
2019-05-29T08:04:27.113Z,4.27
2019-05-29T08:07:13.105Z,4.73
2019-05-29T08:09:43.632Z,4.30
2019-05-29T08:12:50.243Z,4.30
2019-05-29T08:15:14.071Z,4.30
2019-05-29T08:18:03.217Z,4.33
2019-05-29T08:20:33.293Z,4.77
2019-05-29T08:23:24.209Z,4.30
2019-05-29T08:25:54.306Z,4.07
2019-05-29T08:28:31.616Z,3.70
2019-05-29T08:31:01.760Z,3.83
2019-05-29T08:33:31.926Z,3.10
2019-05-29T08:36:02.191Z,3.80
2019-05-29T08:38:32.302Z,3.63
2019-05-29T08:41:05.820Z,3.87
2019-05-29T08:43:34.369Z,3.80
2019-05-29T08:46:04.503Z,4.00
2019-05-29T08:48:34.612Z,3.80
2019-05-29T08:51:04.777Z,3.40
2019-05-29T08:53:34.896Z,3.20
2019-05-29T08:56:05.096Z,3.50
2019-05-29T08:58:37.197Z,3.57
2019-05-29T09:01:26.061Z,3.40
2019-05-29T09:03:57.003Z,4.00
2019-05-29T09:06:47.181Z,3.53
2019-05-29T09:09:17.316Z,3.43
2019-05-29T09:12:10.254Z,3.13
2019-05-29T09:14:40.365Z,2.90
2019-05-29T09:17:10.462Z,3.50
2019-05-29T09:19:40.580Z,3.13
2019-05-29T09:22:10.777Z,2.80
2019-05-29T09:24:40.900Z,2.60
2019-05-29T09:27:10.964Z,2.83
2019-05-29T09:29:41.028Z,2.97
2019-05-29T09:32:11.125Z,2.83
2019-05-29T09:34:41.230Z,2.80
2019-05-29T09:37:11.400Z,3.10
2019-05-29T09:39:56.460Z,2.73
2019-05-29T09:42:26.572Z,2.53
2019-05-29T09:44:56.631Z,2.40
2019-05-29T09:47:26.718Z,2.60
2019-05-29T09:49:56.979Z,2.40
2019-05-29T09:52:33.845Z,2.50
2019-05-29T09:55:04.048Z,3.03
2019-05-29T09:57:34.172Z,2.90
2019-05-29T10:00:11.638Z,3.10
2019-05-29T10:02:41.743Z,3.00
2019-05-29T10:05:11.790Z,3.47
2019-05-29T10:07:58.090Z,3.30
2019-05-29T10:10:28.980Z,3.00
2019-05-29T10:13:19.062Z,3.30
2019-05-29T10:15:49.175Z,3.10
2019-05-29T10:18:43.681Z,2.83
2019-05-29T10:21:16.065Z,3.40
2019-05-29T10:24:14.804Z,3.23
2019-05-29T10:26:44.902Z,3.00
2019-05-29T10:29:14.990Z,2.70
2019-05-29T10:31:46.878Z,3.33
2019-05-29T10:34:16.964Z,3.20
2019-05-29T10:36:50.388Z,2.83
2019-05-29T10:39:18.797Z,2.10
2019-05-29T10:42:07.971Z,2.50
2019-05-29T10:44:38.049Z,2.80
2019-05-29T10:47:08.166Z,2.70
2019-05-29T10:49:38.233Z,2.57
2019-05-29T10:52:16.184Z,2.30
2019-05-29T10:54:40.091Z,2.37
2019-05-29T10:57:10.161Z,2.30
2019-05-29T10:59:40.265Z,2.73
2019-05-29T11:02:22.181Z,2.03
2019-05-29T11:04:56.410Z,2.60
2019-05-29T11:07:47.625Z,2.50
2019-05-29T11:10:18.178Z,2.90
2019-05-29T11:13:10.062Z,3.00
2019-05-29T11:15:40.208Z,2.73
2019-05-29T11:18:37.696Z,2.70
2019-05-29T11:21:07.882Z,2.60
2019-05-29T11:24:00.402Z,2.50
2019-05-29T11:26:30.548Z,2.70
2019-05-29T11:29:22.007Z,2.40
2019-05-29T11:31:53.446Z,2.50
2019-05-29T11:34:45.628Z,2.70
2019-05-29T11:37:15.697Z,2.80
2019-05-29T11:40:08.999Z,2.63
2019-05-29T11:42:33.941Z,2.40
2019-05-29T11:45:04.723Z,2.40
2019-05-29T11:47:34.845Z,2.23
2019-05-29T11:50:18.843Z,2.13
2019-05-29T11:52:42.853Z,2.13
2019-05-29T11:55:11.727Z,2.07
2019-05-29T11:57:41.857Z,2.50
2019-05-29T12:00:20.477Z,2.10
2019-05-29T12:02:47.104Z,2.33
2019-05-29T12:05:17.294Z,2.37
2019-05-29T12:07:47.413Z,2.50
2019-05-29T12:10:18.082Z,2.13
2019-05-29T12:12:48.443Z,2.40
2019-05-29T12:15:19.040Z,2.50
2019-05-29T12:18:23.194Z,2.10
2019-05-29T12:20:38.861Z,2.43
2019-05-29T12:23:28.629Z,2.10
2019-05-29T12:26:16.636Z,2.40
2019-05-29T12:28:50.453Z,2.40
2019-05-29T12:31:20.516Z,2.60
2019-05-29T12:33:50.604Z,2.57
2019-05-29T12:36:20.683Z,2.47
2019-05-29T12:38:50.736Z,2.10
2019-05-29T12:41:20.804Z,2.00
2019-05-29T12:43:50.917Z,2.40
2019-05-29T12:46:20.974Z,2.53
2019-05-29T12:48:51.046Z,2.60
2019-05-29T12:51:21.140Z,2.53
2019-05-29T12:53:51.217Z,2.33
2019-05-29T12:56:21.522Z,2.20
2019-05-29T12:58:51.614Z,2.27
2019-05-29T13:01:21.812Z,2.37
2019-05-29T13:03:51.942Z,2.20
2019-05-29T13:06:43.034Z,2.20
2019-05-29T13:09:13.105Z,2.20
2019-05-29T13:11:44.656Z,2.20
2019-05-29T13:14:14.654Z,2.50
2019-05-29T13:16:44.756Z,2.20
2019-05-29T13:19:14.866Z,2.30
2019-05-29T13:21:44.979Z,2.27
2019-05-29T13:24:15.085Z,2.80
2019-05-29T13:26:45.142Z,2.30
2019-05-29T13:29:15.204Z,2.63
2019-05-29T13:31:45.293Z,2.40
2019-05-29T13:34:19.449Z,2.80
2019-05-29T13:36:49.604Z,2.40
2019-05-29T13:39:44.425Z,2.17
2019-05-29T13:42:14.513Z,2.10
2019-05-29T13:44:59.038Z,2.30
2019-05-29T13:47:24.114Z,2.50
2019-05-29T13:49:54.205Z,2.43
2019-05-29T13:52:24.271Z,2.20
2019-05-29T13:54:54.367Z,2.00
2019-05-29T13:57:24.417Z,2.20
2019-05-29T13:59:54.525Z,2.13
2019-05-29T14:02:24.731Z,2.10
2019-05-29T14:04:54.841Z,2.20
2019-05-29T14:07:24.971Z,2.27
2019-05-29T14:09:55.042Z,2.30
2019-05-29T14:12:25.166Z,1.90
2019-05-29T14:14:55.234Z,2.17
2019-05-29T14:17:37.947Z,2.07
2019-05-29T14:20:09.005Z,2.13
2019-05-29T14:23:03.462Z,1.70
2019-05-29T14:25:33.557Z,1.70
2019-05-29T14:28:14.808Z,1.80
2019-05-29T14:30:44.889Z,1.70
2019-05-29T14:33:15.415Z,2.10
2019-05-29T14:35:45.505Z,2.00
2019-05-29T14:38:15.638Z,2.30
2019-05-29T14:40:45.706Z,2.00
2019-05-29T14:43:15.851Z,1.83
2019-05-29T14:45:45.945Z,1.77
2019-05-29T14:48:16.068Z,1.80
2019-05-29T14:50:49.625Z,1.93
2019-05-29T14:53:19.716Z,2.00
2019-05-29T14:55:55.693Z,1.77
2019-05-29T14:58:25.929Z,2.00
2019-05-29T15:00:55.975Z,1.60
2019-05-29T15:03:26.019Z,1.83
2019-05-29T15:05:56.122Z,1.77
2019-05-29T15:08:26.191Z,2.20
2019-05-29T15:10:57.276Z,1.80
2019-05-29T15:13:27.373Z,2.13
2019-05-29T15:15:57.497Z,1.67
2019-05-29T15:18:27.541Z,1.90
2019-05-29T15:20:57.606Z,1.80
2019-05-29T15:23:27.702Z,1.97
2019-05-29T15:25:57.817Z,2.10
2019-05-29T15:28:38.453Z,1.73
2019-05-29T15:31:08.580Z,1.90
2019-05-29T15:33:38.716Z,1.60
2019-05-29T15:36:08.872Z,2.00
2019-05-29T15:38:38.995Z,1.80
2019-05-29T15:41:09.141Z,1.50
2019-05-29T15:43:39.242Z,1.60
2019-05-29T15:46:10.480Z,1.80
2019-05-29T15:48:41.158Z,1.50
2019-05-29T15:51:11.249Z,1.60
2019-05-29T15:53:41.345Z,1.90
2019-05-29T15:56:22.807Z,1.77
2019-05-29T15:58:43.123Z,1.87
2019-05-29T16:01:27.269Z,1.80
2019-05-29T16:03:57.387Z,2.07
2019-05-29T16:07:02.217Z,1.80
2019-05-29T16:09:32.519Z,1.90
2019-05-29T16:12:02.582Z,1.90
2019-05-29T16:14:51.705Z,1.87
2019-05-29T16:17:21.793Z,2.10
2019-05-29T16:19:52.809Z,1.90
2019-05-29T16:22:22.861Z,1.93
2019-05-29T16:24:52.992Z,2.10
2019-05-29T16:27:27.498Z,2.10
2019-05-29T16:29:54.803Z,1.93
2019-05-29T16:32:27.532Z,2.17
2019-05-29T16:34:57.795Z,1.70
2019-05-29T16:37:27.949Z,1.93
2019-05-29T16:39:58.029Z,2.23
2019-05-29T16:42:28.129Z,1.90
2019-05-29T16:45:01.573Z,1.77
2019-05-29T16:47:31.816Z,1.90
2019-05-29T16:50:22.777Z,2.10
2019-05-29T16:52:53.081Z,1.93
2019-05-29T16:55:23.266Z,1.73
2019-05-29T16:57:53.340Z,2.10
2019-05-29T17:00:24.708Z,3.20
2019-05-29T17:02:54.874Z,2.20
2019-05-29T17:05:25.580Z,1.87
2019-05-29T17:07:55.628Z,1.77
2019-05-29T17:10:36.000Z,2.13
2019-05-29T17:13:06.994Z,1.70
2019-05-29T17:15:37.284Z,1.70
2019-05-29T17:18:07.409Z,1.80
2019-05-29T17:20:44.985Z,2.00
2019-05-29T17:23:16.923Z,2.00
2019-05-29T17:25:47.198Z,1.87
2019-05-29T17:28:36.547Z,2.07
2019-05-29T17:31:06.769Z,2.10
2019-05-29T17:33:58.140Z,2.00
2019-05-29T17:36:29.216Z,1.90
2019-05-29T17:39:21.459Z,2.20
2019-05-29T17:41:51.500Z,1.90
2019-05-29T17:44:21.578Z,2.13
2019-05-29T17:46:51.688Z,2.37
2019-05-29T17:49:28.992Z,2.57
2019-05-29T17:51:53.536Z,2.50
2019-05-29T17:54:23.957Z,2.70
2019-05-29T17:56:54.423Z,2.00
2019-05-29T17:59:24.509Z,2.90
2019-05-29T18:01:54.624Z,2.20
2019-05-29T18:04:24.946Z,2.17
2019-05-29T18:07:00.592Z,2.80
2019-05-29T18:09:30.649Z,2.70
2019-05-29T18:12:20.999Z,2.23
2019-05-29T18:14:51.072Z,2.50
2019-05-29T18:17:21.427Z,2.60
2019-05-29T18:19:51.552Z,2.10
2019-05-29T18:22:21.703Z,2.40
2019-05-29T18:24:51.806Z,2.27
2019-05-29T18:27:21.928Z,2.30
2019-05-29T18:29:51.941Z,2.50
2019-05-29T18:32:22.441Z,2.60
2019-05-29T18:34:56.335Z,2.10
2019-05-29T18:37:24.352Z,2.50
2019-05-29T18:39:54.439Z,2.60
2019-05-29T18:42:25.660Z,2.80
2019-05-29T18:45:02.530Z,2.43
2019-05-29T18:47:33.365Z,3.30
2019-05-29T18:50:23.738Z,3.73
2019-05-29T18:52:53.840Z,3.00
2019-05-29T18:55:24.859Z,3.27
2019-05-29T18:57:55.288Z,3.23
2019-05-29T19:00:25.489Z,4.00
2019-05-29T19:02:55.612Z,3.30
2019-05-29T19:05:25.741Z,3.03
2019-05-29T19:07:55.802Z,3.20
2019-05-29T19:10:25.952Z,3.00
2019-05-29T19:12:56.033Z,3.07
2019-05-29T19:15:26.107Z,4.13
2019-05-29T19:17:56.197Z,3.03
2019-05-29T19:20:26.343Z,3.00
2019-05-29T19:23:02.338Z,3.10
2019-05-29T19:25:33.670Z,2.90
2019-05-29T19:28:22.984Z,2.90
2019-05-29T19:30:53.096Z,3.00
2019-05-29T19:33:43.480Z,3.13
2019-05-29T19:36:13.584Z,3.40
2019-05-29T19:38:43.664Z,3.07
2019-05-29T19:41:13.791Z,3.60
2019-05-29T19:43:43.857Z,2.70
2019-05-29T19:46:13.933Z,2.90
2019-05-29T19:48:44.048Z,3.07
2019-05-29T19:51:14.211Z,2.70
2019-05-29T19:53:44.273Z,3.17
2019-05-29T19:56:14.360Z,2.97
2019-05-29T19:58:44.448Z,9.37
2019-05-29T20:01:28.045Z,3.77
2019-05-29T20:03:46.337Z,3.30
2019-05-29T20:06:16.433Z,3.63
2019-05-29T20:08:46.516Z,3.47
2019-05-29T20:11:40.814Z,4.20
2019-05-29T20:14:01.602Z,15.03
2019-05-29T20:16:32.092Z,15.20
2019-05-29T20:19:02.344Z,12.93
2019-05-29T20:21:32.804Z,11.00
2019-05-29T20:24:02.892Z,19.30
2019-05-29T20:26:33.050Z,14.60
2019-05-29T20:29:03.250Z,18.50
2019-05-29T20:31:34.478Z,9.90
2019-05-29T20:34:10.252Z,6.03
2019-05-29T20:36:41.457Z,13.23
2019-05-29T20:39:24.258Z,17.57
2019-05-29T20:41:59.760Z,22.53
2019-05-29T20:44:39.957Z,19.43
2019-05-29T20:47:10.028Z,18.30
2019-05-29T20:50:00.672Z,12.80
2019-05-29T20:52:31.096Z,11.77
2019-05-29T20:55:22.015Z,9.63
2019-05-29T20:57:52.061Z,6.30
2019-05-29T21:00:53.208Z,4.37
2019-05-29T21:03:23.257Z,3.50
2019-05-29T21:06:13.478Z,3.60
2019-05-29T21:08:43.545Z,4.73
2019-05-29T21:11:43.657Z,5.17
2019-05-29T21:14:13.957Z,3.97
2019-05-29T21:17:06.180Z,3.30
2019-05-29T21:19:38.189Z,2.53
2019-05-29T21:22:24.950Z,2.83
2019-05-29T21:25:01.829Z,3.13
2019-05-29T21:27:49.464Z,3.47
2019-05-29T21:30:24.506Z,2.60
2019-05-29T21:33:12.094Z,3.07
2019-05-29T21:35:42.278Z,3.00
2019-05-29T21:38:38.026Z,2.80
2019-05-29T21:41:08.185Z,2.57
2019-05-29T21:43:56.548Z,2.70
2019-05-29T21:46:26.758Z,2.60
2019-05-29T21:49:01.808Z,2.60
2019-05-29T21:51:31.208Z,2.87
2019-05-29T21:54:01.284Z,2.33
2019-05-29T21:56:31.380Z,2.37
2019-05-29T21:59:04.119Z,2.93
2019-05-29T22:01:33.366Z,2.70
2019-05-29T22:04:03.607Z,2.60
2019-05-29T22:06:34.114Z,2.83
2019-05-29T22:09:05.943Z,2.57
2019-05-29T22:11:36.029Z,2.70
2019-05-29T22:14:06.150Z,7.67
2019-05-29T22:16:36.300Z,4.70
2019-05-29T22:19:06.915Z,3.53
2019-05-29T22:21:46.416Z,2.73
2019-05-29T22:24:16.539Z,3.40
2019-05-29T22:26:49.338Z,2.70
2019-05-29T22:29:19.382Z,3.90
2019-05-29T22:31:49.428Z,3.43
2019-05-29T22:34:19.660Z,3.67
2019-05-29T22:36:49.756Z,3.27
2019-05-29T22:39:19.824Z,2.67
2019-05-29T22:41:49.899Z,2.83
2019-05-29T22:44:19.961Z,2.60
2019-05-29T22:46:50.048Z,2.13
2019-05-29T22:49:20.125Z,2.70
2019-05-29T22:51:50.196Z,3.33
2019-05-29T22:54:27.665Z,4.10
2019-05-29T22:56:57.970Z,3.03
2019-05-29T22:59:44.465Z,3.40
2019-05-29T23:02:14.533Z,3.00
2019-05-29T23:04:44.625Z,2.50
2019-05-29T23:07:14.708Z,2.53
2019-05-29T23:09:44.745Z,2.63
2019-05-29T23:12:14.809Z,3.17
2019-05-29T23:14:44.861Z,2.50
2019-05-29T23:17:14.972Z,2.87
2019-05-29T23:19:45.142Z,2.43
2019-05-29T23:22:15.207Z,3.20
2019-05-29T23:24:45.280Z,2.70
2019-05-29T23:27:15.413Z,2.70
2019-05-29T23:29:48.896Z,2.90
2019-05-29T23:32:39.925Z,3.20
2019-05-29T23:35:10.108Z,2.87
2019-05-29T23:37:53.052Z,2.77
2019-05-29T23:40:23.455Z,2.90
2019-05-29T23:43:15.627Z,2.70
2019-05-29T23:45:45.692Z,2.97
2019-05-29T23:48:37.528Z,3.10
2019-05-29T23:51:07.581Z,2.93
2019-05-29T23:53:53.528Z,2.97
2019-05-29T23:56:17.645Z,2.90
2019-05-29T23:58:47.840Z,3.00
